Homosassa, Florida
Current Conditions -  °F | °C
As of 5:55 PM on Tuesday 25 Nov 2014 (Local Time) from KCGC Reporting Station
Thunderstorm Thunderstorm  
Wind Chill: 68°   Ceiling: 400
Heat Index: 68°   Visibility: 7mi
Dew Point: 66°   Wind: 0mph
Humidity: 94%   Direction: NA
Pressure: 29.91"   Gusts: NA
Location:  28.78°N, 82.62°W
Report Text: KCGC 252255Z AUTO 00000KT 7SM VCTSRA OVC004 20/19 A2991 RMK AO2 LTG DSNT E THRU SW P0015
Loading
Personal Weather Stations






























Interactive Weather Map New forecast layout! Learn more

10-Day Weather Forecast

Advertisements
Track Severe Weather on mobile